createdAt,value
2022-11-03T00:01:36.192Z,8.50
2022-11-03T00:04:04.238Z,8.40
2022-11-03T00:06:33.901Z,8.40
2022-11-03T00:09:04.263Z,8.40
2022-11-03T00:11:33.802Z,8.40
2022-11-03T00:14:02.050Z,8.40
2022-11-03T00:16:30.036Z,8.30
2022-11-03T00:18:57.943Z,8.30
2022-11-03T00:21:26.172Z,8.30
2022-11-03T00:23:55.709Z,8.30
2022-11-03T00:26:25.505Z,8.30
2022-11-03T00:28:54.616Z,8.30
2022-11-03T00:31:24.607Z,8.30
2022-11-03T00:33:52.683Z,8.30
2022-11-03T00:36:22.322Z,8.20
2022-11-03T00:38:50.828Z,8.20
2022-11-03T00:41:21.683Z,8.20
2022-11-03T00:43:50.443Z,8.20
2022-11-03T00:46:19.819Z,8.20
2022-11-03T00:48:48.331Z,8.20
2022-11-03T00:51:20.198Z,8.10
2022-11-03T00:53:50.049Z,8.10
2022-11-03T00:56:22.102Z,8.10
2022-11-03T00:58:51.157Z,8.10
2022-11-03T01:01:21.201Z,8.10
2022-11-03T01:04:05.491Z,8.00
2022-11-03T01:06:52.586Z,8.00
2022-11-03T01:09:22.550Z,8.00
2022-11-03T01:11:58.047Z,8.00
2022-11-03T01:14:27.571Z,8.00
2022-11-03T01:16:55.780Z,8.00
2022-11-03T01:19:25.218Z,8.00
2022-11-03T01:21:53.485Z,8.00
2022-11-03T01:24:22.142Z,8.00
2022-11-03T01:26:50.003Z,8.00
2022-11-03T01:29:19.346Z,7.90
2022-11-03T01:31:47.420Z,7.90
2022-11-03T01:34:16.689Z,7.80
2022-11-03T01:36:45.163Z,7.80
2022-11-03T01:39:14.100Z,7.80
2022-11-03T01:41:43.061Z,7.80
2022-11-03T01:44:47.412Z,7.70
2022-11-03T01:47:22.376Z,7.70
2022-11-03T01:49:53.391Z,7.70
2022-11-03T01:52:26.751Z,7.70
2022-11-03T01:55:00.723Z,7.70
2022-11-03T01:57:34.958Z,7.70
2022-11-03T02:00:05.809Z,7.70
2022-11-03T02:02:33.732Z,7.60
2022-11-03T02:05:04.667Z,7.60
2022-11-03T02:07:37.875Z,7.50
2022-11-03T02:10:06.930Z,7.50
2022-11-03T02:12:35.659Z,7.50
2022-11-03T02:15:08.482Z,7.40
2022-11-03T02:17:38.361Z,7.40
2022-11-03T02:20:11.140Z,7.40
2022-11-03T02:23:04.222Z,7.40
2022-11-03T02:25:41.281Z,7.40
2022-11-03T02:28:09.557Z,7.40
2022-11-03T02:30:42.933Z,7.40
2022-11-03T02:33:21.474Z,7.40
2022-11-03T02:35:55.760Z,7.30
2022-11-03T02:38:26.682Z,7.30
2022-11-03T02:40:58.643Z,7.30
2022-11-03T02:43:28.677Z,7.30
2022-11-03T02:45:56.988Z,7.30
2022-11-03T02:48:24.832Z,7.30
2022-11-03T02:50:52.866Z,7.30
2022-11-03T02:53:21.139Z,7.30
2022-11-03T02:55:59.190Z,7.30
2022-11-03T02:58:36.023Z,7.30
2022-11-03T03:01:14.803Z,7.20
2022-11-03T03:03:48.676Z,7.20
2022-11-03T03:06:20.906Z,7.20
2022-11-03T03:08:52.049Z,7.10
2022-11-03T03:11:37.438Z,7.10
2022-11-03T03:14:10.851Z,7.00
2022-11-03T03:16:45.141Z,7.10
2022-11-03T03:19:22.718Z,7.00
2022-11-03T03:21:53.999Z,7.00
2022-11-03T03:24:30.007Z,7.00
2022-11-03T03:27:00.942Z,7.00
2022-11-03T03:29:33.660Z,7.10
2022-11-03T03:32:07.487Z,7.10
2022-11-03T03:34:37.601Z,7.00
2022-11-03T03:37:07.569Z,7.10
2022-11-03T03:39:38.653Z,7.10
2022-11-03T03:42:11.073Z,7.10
2022-11-03T03:44:42.459Z,7.10
2022-11-03T03:47:14.493Z,7.10
2022-11-03T03:49:42.482Z,7.00
2022-11-03T03:52:10.785Z,7.00
2022-11-03T03:54:38.626Z,7.00
2022-11-03T03:57:13.895Z,7.00
2022-11-03T03:59:41.722Z,7.00
2022-11-03T04:02:10.014Z,6.90
2022-11-03T04:04:38.205Z,6.90
2022-11-03T04:07:23.610Z,7.00
2022-11-03T04:09:51.691Z,7.00
2022-11-03T04:12:38.201Z,7.00
2022-11-03T04:15:24.131Z,7.00
2022-11-03T04:18:09.784Z,7.00
2022-11-03T04:20:55.386Z,7.00
2022-11-03T04:23:23.253Z,7.00
2022-11-03T04:25:54.173Z,7.00
2022-11-03T04:28:23.632Z,7.00
2022-11-03T04:30:54.652Z,7.00
2022-11-03T04:33:25.885Z,7.00
2022-11-03T04:35:54.780Z,7.00
2022-11-03T04:38:24.645Z,6.90
2022-11-03T04:40:55.533Z,6.90
2022-11-03T04:43:32.514Z,6.90
2022-11-03T04:46:00.468Z,6.90
2022-11-03T04:48:29.855Z,6.90
2022-11-03T04:51:00.461Z,6.90
2022-11-03T04:53:31.893Z,6.90
2022-11-03T04:56:06.979Z,6.80
2022-11-03T04:58:37.302Z,6.80
2022-11-03T05:01:07.772Z,6.80
2022-11-03T05:03:37.273Z,6.80
2022-11-03T05:06:12.648Z,6.80
2022-11-03T05:08:40.770Z,6.80
2022-11-03T05:11:18.171Z,6.80
2022-11-03T05:13:47.769Z,6.70
2022-11-03T05:16:15.846Z,6.70
2022-11-03T05:18:45.325Z,6.70
2022-11-03T05:21:16.677Z,6.70
2022-11-03T05:23:48.117Z,6.70
2022-11-03T05:26:19.404Z,6.70
2022-11-03T05:28:53.373Z,6.70
2022-11-03T05:31:27.027Z,6.60
2022-11-03T05:33:57.943Z,6.60
2022-11-03T05:36:27.841Z,6.50
2022-11-03T05:39:00.185Z,6.50
2022-11-03T05:41:30.428Z,6.50
2022-11-03T05:44:02.967Z,6.50
2022-11-03T05:46:32.723Z,6.50
2022-11-03T05:49:03.405Z,6.50
2022-11-03T05:51:35.135Z,6.50
2022-11-03T05:54:05.677Z,6.50
2022-11-03T05:56:35.913Z,6.50
2022-11-03T05:59:08.280Z,6.50
2022-11-03T06:01:38.238Z,6.40
2022-11-03T06:04:21.439Z,6.40
2022-11-03T06:06:53.475Z,6.40
2022-11-03T06:09:24.432Z,6.40
2022-11-03T06:11:54.812Z,6.40
2022-11-03T06:14:25.946Z,6.40
2022-11-03T06:16:55.504Z,6.40
2022-11-03T06:19:27.657Z,6.40
2022-11-03T06:21:58.891Z,6.40
2022-11-03T06:24:31.023Z,6.40
2022-11-03T06:26:59.479Z,6.50
2022-11-03T06:29:33.225Z,6.40
2022-11-03T06:32:01.341Z,6.50
2022-11-03T06:34:42.542Z,6.50
2022-11-03T06:37:23.429Z,6.50
2022-11-03T06:39:52.830Z,6.50
2022-11-03T06:42:24.738Z,6.50
2022-11-03T06:44:57.185Z,6.60
2022-11-03T06:47:26.002Z,6.60
2022-11-03T06:49:56.505Z,6.60
2022-11-03T06:52:27.745Z,6.60
2022-11-03T06:55:01.614Z,6.60
2022-11-03T06:57:34.188Z,6.70
2022-11-03T07:00:28.075Z,6.70
2022-11-03T07:02:57.880Z,6.80
2022-11-03T07:05:28.136Z,6.80
2022-11-03T07:07:58.494Z,6.90
2022-11-03T07:10:28.786Z,7.00
2022-11-03T07:12:58.565Z,7.00
2022-11-03T07:15:33.680Z,7.10
2022-11-03T07:18:02.787Z,7.10
2022-11-03T07:20:30.684Z,7.10
2022-11-03T07:23:02.884Z,7.20
2022-11-03T07:25:32.733Z,7.30
2022-11-03T07:28:04.685Z,7.40
2022-11-03T07:30:36.180Z,7.50
2022-11-03T07:33:13.349Z,7.50
2022-11-03T07:36:13.061Z,7.70
2022-11-03T07:38:31.487Z,7.80
2022-11-03T07:41:00.871Z,7.90
2022-11-03T07:43:32.658Z,8.00
2022-11-03T07:46:03.480Z,8.10
2022-11-03T07:48:37.524Z,8.20
2022-11-03T07:51:16.980Z,8.30
2022-11-03T07:53:47.109Z,8.40
2022-11-03T07:56:19.392Z,8.60
2022-11-03T07:58:48.827Z,8.80
2022-11-03T08:01:38.057Z,8.90
2022-11-03T08:04:08.204Z,9.00
2022-11-03T08:06:36.069Z,9.20
2022-11-03T08:09:04.292Z,9.40
2022-11-03T08:11:32.181Z,9.50
2022-11-03T08:14:00.094Z,9.60
2022-11-03T08:16:28.005Z,9.70
2022-11-03T08:18:57.215Z,9.80
2022-11-03T08:21:25.085Z,9.90
2022-11-03T08:23:53.228Z,10.10
2022-11-03T08:26:21.429Z,10.20
2022-11-03T08:28:49.353Z,10.40
2022-11-03T08:31:17.590Z,10.50
2022-11-03T08:33:45.704Z,10.70
2022-11-03T08:36:15.027Z,10.80
2022-11-03T08:38:42.894Z,11.00
2022-11-03T08:41:10.844Z,11.20
2022-11-03T08:43:38.770Z,11.40
2022-11-03T08:46:15.724Z,11.60
2022-11-03T08:48:44.930Z,11.90
2022-11-03T08:51:14.807Z,12.30
2022-11-03T08:53:43.560Z,12.60
2022-11-03T08:56:13.192Z,13.00
2022-11-03T08:58:42.328Z,13.50
2022-11-03T09:01:10.362Z,14.00
2022-11-03T09:03:38.313Z,14.70
2022-11-03T09:06:06.469Z,15.40
2022-11-03T09:11:23.634Z,16.30
2022-11-03T09:13:51.473Z,16.60
2022-11-03T09:16:19.343Z,16.90
2022-11-03T09:18:47.210Z,17.20
2022-11-03T09:21:15.538Z,17.30
2022-11-03T09:23:44.769Z,17.30
2022-11-03T09:26:12.640Z,17.30
2022-11-03T09:28:40.514Z,17.40
2022-11-03T09:31:08.388Z,17.50
2022-11-03T09:33:36.249Z,17.90
2022-11-03T09:36:04.145Z,18.00
2022-11-03T09:38:31.990Z,18.20
2022-11-03T09:41:02.184Z,18.20
2022-11-03T09:43:30.162Z,18.20
2022-11-03T09:45:58.064Z,18.00
2022-11-03T09:48:27.001Z,17.80
2022-11-03T09:50:56.165Z,17.60
2022-11-03T09:53:24.049Z,17.50
2022-11-03T09:55:51.970Z,17.40
2022-11-03T09:58:21.188Z,17.20
2022-11-03T10:00:49.184Z,17.20
2022-11-03T10:03:20.324Z,17.50
2022-11-03T10:05:49.032Z,17.70
2022-11-03T10:08:23.122Z,17.90
2022-11-03T10:10:51.339Z,18.20
2022-11-03T10:13:27.999Z,18.40
2022-11-03T10:15:56.110Z,18.30
2022-11-03T10:18:24.636Z,18.00
2022-11-03T10:20:52.478Z,17.90
2022-11-03T10:23:20.355Z,17.80
2022-11-03T10:25:48.254Z,17.40
2022-11-03T10:28:21.159Z,17.10
2022-11-03T10:31:11.307Z,16.70
2022-11-03T10:33:41.705Z,16.40
2022-11-03T10:36:25.349Z,16.00
2022-11-03T10:38:53.746Z,15.70
2022-11-03T10:41:23.863Z,15.40
2022-11-03T10:44:02.865Z,15.30
2022-11-03T10:49:21.592Z,15.10
2022-11-03T10:51:52.128Z,14.90
2022-11-03T10:54:22.543Z,14.80
2022-11-03T10:56:51.887Z,14.70
2022-11-03T10:59:21.821Z,14.60
2022-11-03T11:01:51.174Z,14.50
2022-11-03T11:04:20.812Z,14.40
2022-11-03T11:06:49.383Z,14.40
2022-11-03T11:09:22.144Z,14.40
2022-11-03T11:12:05.614Z,14.50
2022-11-03T11:14:39.739Z,14.60
2022-11-03T11:17:41.447Z,14.70
2022-11-03T11:20:30.377Z,15.00
2022-11-03T11:23:48.971Z,15.30
2022-11-03T11:26:32.800Z,15.50
2022-11-03T11:29:46.033Z,15.60
2022-11-03T11:32:53.080Z,15.50
2022-11-03T11:36:06.298Z,15.40
2022-11-03T11:39:11.807Z,15.10
2022-11-03T11:42:13.227Z,15.00
2022-11-03T11:44:49.831Z,14.80
2022-11-03T11:47:32.243Z,14.70
2022-11-03T11:50:31.650Z,14.60
2022-11-03T11:53:20.668Z,14.50
2022-11-03T11:55:51.570Z,14.40
2022-11-03T11:58:27.481Z,14.30
2022-11-03T12:01:01.003Z,14.20
2022-11-03T12:03:37.216Z,14.10
2022-11-03T12:06:05.672Z,14.00
2022-11-03T12:08:35.400Z,14.00
2022-11-03T12:11:05.329Z,13.90
2022-11-03T12:13:41.973Z,14.00
2022-11-03T12:16:10.299Z,14.00
2022-11-03T12:18:44.770Z,14.00
2022-11-03T12:21:48.840Z,14.00
2022-11-03T12:24:54.129Z,14.10
2022-11-03T12:27:43.373Z,14.00
2022-11-03T12:30:17.233Z,14.10
2022-11-03T12:32:45.815Z,14.00
2022-11-03T12:35:14.528Z,13.90
2022-11-03T12:37:43.051Z,13.90
2022-11-03T12:40:14.169Z,13.90
2022-11-03T12:42:42.183Z,13.80
2022-11-03T12:45:10.935Z,13.80
2022-11-03T12:47:38.821Z,13.70
2022-11-03T12:50:07.362Z,13.70
2022-11-03T12:52:35.247Z,13.60
2022-11-03T12:55:03.133Z,13.60
2022-11-03T12:57:32.396Z,13.50
2022-11-03T13:00:00.416Z,13.50
2022-11-03T13:02:28.353Z,13.50
2022-11-03T13:04:56.356Z,13.50
2022-11-03T13:07:27.896Z,13.40
2022-11-03T13:09:56.999Z,13.40
2022-11-03T13:12:35.091Z,13.40
2022-11-03T13:15:07.191Z,13.30
2022-11-03T13:17:59.080Z,13.30
2022-11-03T13:20:23.019Z,13.30
2022-11-03T13:22:50.970Z,13.30
2022-11-03T13:25:19.595Z,13.30
2022-11-03T13:27:48.969Z,13.30
2022-11-03T13:30:18.330Z,13.30
2022-11-03T13:32:46.295Z,13.30
2022-11-03T13:35:14.312Z,13.30
2022-11-03T13:37:42.728Z,13.30
2022-11-03T13:40:29.156Z,13.30
2022-11-03T13:43:00.814Z,13.20
2022-11-03T13:45:30.078Z,13.20
2022-11-03T13:50:46.292Z,13.20
2022-11-03T13:56:06.853Z,13.10
2022-11-03T14:01:26.101Z,13.10
2022-11-03T14:06:41.942Z,13.10
2022-11-03T14:09:10.317Z,13.10
2022-11-03T14:11:55.531Z,13.10
2022-11-03T14:14:23.438Z,13.00
2022-11-03T14:16:52.741Z,13.00
2022-11-03T14:19:20.643Z,13.00
2022-11-03T14:21:48.534Z,13.00
2022-11-03T14:24:16.784Z,13.00
2022-11-03T14:26:44.773Z,13.00
2022-11-03T14:29:12.793Z,13.00
2022-11-03T14:31:40.998Z,13.00
2022-11-03T14:34:10.304Z,13.00
2022-11-03T14:36:38.196Z,12.90
2022-11-03T14:39:06.062Z,12.90
2022-11-03T14:41:51.337Z,12.90
2022-11-03T14:44:19.440Z,12.90
2022-11-03T14:46:47.349Z,12.90
2022-11-03T14:49:16.631Z,12.90
2022-11-03T14:51:44.547Z,12.90
2022-11-03T14:54:12.391Z,12.90
2022-11-03T14:56:40.230Z,12.90
2022-11-03T14:59:08.117Z,12.80
2022-11-03T15:01:36.660Z,12.90
2022-11-03T15:04:04.718Z,12.80
2022-11-03T15:06:33.918Z,12.80
2022-11-03T15:09:01.876Z,12.80
2022-11-03T15:11:29.831Z,12.70
2022-11-03T15:13:57.893Z,12.70
2022-11-03T15:16:25.908Z,12.70
2022-11-03T15:18:53.788Z,12.70
2022-11-03T15:21:21.725Z,12.60
2022-11-03T15:26:38.936Z,12.60
2022-11-03T15:29:06.822Z,12.60
2022-11-03T15:31:34.671Z,12.60
2022-11-03T15:34:05.996Z,12.50
2022-11-03T15:36:36.633Z,12.50
2022-11-03T15:39:05.854Z,12.50
2022-11-03T15:41:33.688Z,12.50
2022-11-03T15:44:01.539Z,12.40
2022-11-03T15:46:29.495Z,12.40
2022-11-03T15:48:57.592Z,12.40
2022-11-03T15:51:25.898Z,12.40
2022-11-03T15:53:58.531Z,12.40
2022-11-03T15:56:28.532Z,12.30
2022-11-03T15:58:56.649Z,12.30
2022-11-03T16:01:24.847Z,12.30
2022-11-03T16:03:53.150Z,12.30
2022-11-03T16:06:27.048Z,12.20
2022-11-03T16:09:08.474Z,12.20
2022-11-03T16:11:37.710Z,12.20
2022-11-03T16:14:05.544Z,12.20
2022-11-03T16:16:33.393Z,12.20
2022-11-03T16:19:01.264Z,12.20
2022-11-03T16:21:29.808Z,12.20
2022-11-03T16:23:57.624Z,12.20
2022-11-03T16:26:25.467Z,12.20
2022-11-03T16:28:54.875Z,12.20
2022-11-03T16:31:22.717Z,12.20
2022-11-03T16:33:51.658Z,12.20
2022-11-03T16:36:20.072Z,12.20
2022-11-03T16:38:48.085Z,12.20
2022-11-03T16:41:16.171Z,12.20
2022-11-03T16:43:44.073Z,12.20
2022-11-03T16:46:13.264Z,12.20
2022-11-03T16:48:41.110Z,12.20
2022-11-03T16:51:09.076Z,12.20
2022-11-03T16:53:36.989Z,12.20
2022-11-03T16:56:05.193Z,12.10
2022-11-03T16:58:33.086Z,12.10
2022-11-03T17:01:00.959Z,12.10
2022-11-03T17:03:30.208Z,12.20
2022-11-03T17:05:58.062Z,12.10
2022-11-03T17:08:51.443Z,12.10
2022-11-03T17:11:13.821Z,12.10
2022-11-03T17:13:41.777Z,12.10
2022-11-03T17:16:09.711Z,12.10
2022-11-03T17:18:38.946Z,12.10
2022-11-03T17:21:07.112Z,12.10
2022-11-03T17:23:34.944Z,12.10
2022-11-03T17:26:04.096Z,12.10
2022-11-03T17:28:32.477Z,12.10
2022-11-03T17:31:00.478Z,12.10
2022-11-03T17:33:28.486Z,12.10
2022-11-03T17:35:58.178Z,12.10
2022-11-03T17:38:27.185Z,12.10
2022-11-03T17:40:55.172Z,12.10
2022-11-03T17:43:26.975Z,12.10
2022-11-03T17:45:55.113Z,12.10
2022-11-03T17:48:24.058Z,12.10
2022-11-03T17:50:54.612Z,12.10
2022-11-03T17:53:26.293Z,12.10
2022-11-03T17:56:27.737Z,12.10
2022-11-03T17:58:47.008Z,12.10
2022-11-03T18:01:21.070Z,12.00
2022-11-03T18:03:48.978Z,12.00
2022-11-03T18:06:19.447Z,12.00
2022-11-03T18:08:49.536Z,12.00
2022-11-03T18:11:40.241Z,12.00
2022-11-03T18:14:08.096Z,12.00
2022-11-03T18:16:36.002Z,12.00
2022-11-03T18:19:04.405Z,12.00
2022-11-03T18:21:32.292Z,12.00
2022-11-03T18:24:01.496Z,12.00
2022-11-03T18:26:29.307Z,12.00
2022-11-03T18:28:57.241Z,12.00
2022-11-03T18:31:34.003Z,12.00
2022-11-03T18:34:04.012Z,12.00
2022-11-03T18:36:33.431Z,11.90
2022-11-03T18:39:03.169Z,11.90
2022-11-03T18:41:39.411Z,11.90
2022-11-03T18:44:22.656Z,11.80
2022-11-03T18:46:51.391Z,11.80
2022-11-03T18:49:20.294Z,11.80
2022-11-03T18:51:50.529Z,11.80
2022-11-03T18:54:21.511Z,11.80
2022-11-03T18:56:49.854Z,11.80
2022-11-03T18:59:22.055Z,11.70
2022-11-03T19:01:50.417Z,11.70
2022-11-03T19:04:18.469Z,11.80
2022-11-03T19:06:47.791Z,11.70
2022-11-03T19:09:19.605Z,11.70
2022-11-03T19:11:50.457Z,11.70
2022-11-03T19:14:24.033Z,11.70
2022-11-03T19:17:21.387Z,11.70
2022-11-03T19:19:41.426Z,11.70
2022-11-03T19:22:14.025Z,11.70
2022-11-03T19:24:42.058Z,11.70
2022-11-03T19:27:17.970Z,11.70
2022-11-03T19:29:47.595Z,11.70
2022-11-03T19:32:20.942Z,11.70
2022-11-03T19:34:52.648Z,11.70
2022-11-03T19:37:20.501Z,11.70
2022-11-03T19:39:48.607Z,11.70
2022-11-03T19:42:27.503Z,11.70
2022-11-03T19:44:55.938Z,11.70
2022-11-03T19:47:28.347Z,11.70
2022-11-03T19:50:00.737Z,11.80
2022-11-03T19:52:30.856Z,11.80
2022-11-03T19:55:01.590Z,11.80
2022-11-03T19:57:30.922Z,11.80
2022-11-03T19:59:59.616Z,11.80
2022-11-03T20:02:28.819Z,11.80
2022-11-03T20:04:56.785Z,11.80
2022-11-03T20:07:31.060Z,11.80
2022-11-03T20:10:00.591Z,11.80
2022-11-03T20:12:30.737Z,11.80
2022-11-03T20:14:58.750Z,11.80
2022-11-03T20:17:27.183Z,11.80
2022-11-03T20:19:55.069Z,11.80
2022-11-03T20:22:26.849Z,11.80
2022-11-03T20:25:01.568Z,11.70
2022-11-03T20:27:30.844Z,11.70
2022-11-03T20:29:59.845Z,11.70
2022-11-03T20:32:27.734Z,11.70
2022-11-03T20:34:55.716Z,11.70
2022-11-03T20:37:23.575Z,11.70
2022-11-03T20:39:51.458Z,11.70
2022-11-03T20:42:22.165Z,11.70
2022-11-03T20:44:51.835Z,11.70
2022-11-03T20:47:20.865Z,11.60
2022-11-03T20:49:48.696Z,11.60
2022-11-03T20:52:17.168Z,11.60
2022-11-03T20:54:45.407Z,11.60
2022-11-03T20:57:14.158Z,11.60
2022-11-03T20:59:42.478Z,11.60
2022-11-03T21:02:13.856Z,11.60
2022-11-03T21:04:43.081Z,11.60
2022-11-03T21:07:12.828Z,11.60
2022-11-03T21:09:40.777Z,11.60
2022-11-03T21:12:13.023Z,11.60
2022-11-03T21:15:03.992Z,11.60
2022-11-03T21:17:49.957Z,11.60
2022-11-03T21:20:17.909Z,11.60
2022-11-03T21:22:52.527Z,11.60
2022-11-03T21:25:23.269Z,11.50
2022-11-03T21:27:51.762Z,11.60
2022-11-03T21:30:20.158Z,11.60
2022-11-03T21:32:49.693Z,11.60
2022-11-03T21:35:21.183Z,11.50
2022-11-03T21:37:49.250Z,11.60
2022-11-03T21:40:17.625Z,11.60
2022-11-03T21:43:02.978Z,11.60
2022-11-03T21:45:30.833Z,11.60
2022-11-03T21:48:18.030Z,11.60
2022-11-03T21:50:46.164Z,11.60
2022-11-03T21:53:14.245Z,11.60
2022-11-03T21:55:42.307Z,11.60
2022-11-03T21:58:10.500Z,11.60
2022-11-03T22:00:38.391Z,11.60
2022-11-03T22:03:07.921Z,11.60
2022-11-03T22:05:36.063Z,11.60
2022-11-03T22:08:03.961Z,11.50
2022-11-03T22:10:31.826Z,11.50
2022-11-03T22:12:59.684Z,11.50
2022-11-03T22:15:41.448Z,11.50
2022-11-03T22:18:10.921Z,11.50
2022-11-03T22:20:56.658Z,11.60
2022-11-03T22:23:42.069Z,11.50
2022-11-03T22:26:29.418Z,11.50
2022-11-03T22:29:16.345Z,11.50
2022-11-03T22:31:44.242Z,11.50
2022-11-03T22:34:31.250Z,11.50
2022-11-03T22:36:59.276Z,11.60
2022-11-03T22:39:44.621Z,11.60
2022-11-03T22:42:30.549Z,11.70
2022-11-03T22:45:16.129Z,11.70
2022-11-03T22:47:44.019Z,11.70
2022-11-03T22:50:13.288Z,11.70
2022-11-03T22:52:41.119Z,11.70
2022-11-03T22:55:08.106Z,11.70
2022-11-03T22:57:35.994Z,11.70
2022-11-03T23:00:05.562Z,11.70
2022-11-03T23:02:33.625Z,11.70
2022-11-03T23:05:01.549Z,11.70
2022-11-03T23:07:33.033Z,11.70
2022-11-03T23:10:05.018Z,11.70
2022-11-03T23:12:33.240Z,11.70
2022-11-03T23:15:18.669Z,11.60
2022-11-03T23:18:04.086Z,11.60
2022-11-03T23:20:49.699Z,11.60
2022-11-03T23:23:32.792Z,11.60
2022-11-03T23:26:00.811Z,11.60
2022-11-03T23:28:28.669Z,11.60
2022-11-03T23:30:56.507Z,11.60
2022-11-03T23:33:24.430Z,11.60
2022-11-03T23:35:52.297Z,11.50
2022-11-03T23:38:21.507Z,11.50
2022-11-03T23:40:49.600Z,11.50
2022-11-03T23:43:17.513Z,11.50
2022-11-03T23:46:02.571Z,11.50
2022-11-03T23:48:48.658Z,11.50
2022-11-03T23:51:17.369Z,11.40
2022-11-03T23:53:47.188Z,11.40
2022-11-03T23:56:33.792Z,11.40
2022-11-03T23:59:01.914Z,11.40
